sensor_id;sensor_type;location;lat;lon;timestamp;temperature;humidity
18225;DHT22;9237;48.590;8.854;2022-12-07T00:01:33;3.20;99.90
18225;DHT22;9237;48.590;8.854;2022-12-07T00:04:02;3.20;99.90
18225;DHT22;9237;48.590;8.854;2022-12-07T00:06:31;3.30;99.90
18225;DHT22;9237;48.590;8.854;2022-12-07T00:08:58;3.30;99.90
18225;DHT22;9237;48.590;8.854;2022-12-07T00:11:26;3.30;99.90
18225;DHT22;9237;48.590;8.854;2022-12-07T00:13:57;3.20;99.90
18225;DHT22;9237;48.590;8.854;2022-12-07T00:16:26;3.20;99.90
18225;DHT22;9237;48.590;8.854;2022-12-07T00:18:53;3.20;99.90
18225;DHT22;9237;48.590;8.854;2022-12-07T00:21:22;3.20;99.90
18225;DHT22;9237;48.590;8.854;2022-12-07T00:23:50;3.20;99.90
18225;DHT22;9237;48.590;8.854;2022-12-07T00:26:19;3.10;99.90
18225;DHT22;9237;48.590;8.854;2022-12-07T00:28:47;3.10;99.90
18225;DHT22;9237;48.590;8.854;2022-12-07T00:31:16;3.10;99.90
18225;DHT22;9237;48.590;8.854;2022-12-07T00:33:43;3.10;99.90
18225;DHT22;9237;48.590;8.854;2022-12-07T00:36:13;3.10;99.90
18225;DHT22;9237;48.590;8.854;2022-12-07T00:38:40;3.00;99.90
18225;DHT22;9237;48.590;8.854;2022-12-07T00:41:10;3.00;99.90
18225;DHT22;9237;48.590;8.854;2022-12-07T00:43:38;3.10;99.90
18225;DHT22;9237;48.590;8.854;2022-12-07T00:46:05;3.10;99.90
18225;DHT22;9237;48.590;8.854;2022-12-07T00:48:33;3.00;99.90
18225;DHT22;9237;48.590;8.854;2022-12-07T00:51:00;3.00;99.90
18225;DHT22;9237;48.590;8.854;2022-12-07T00:53:27;3.00;99.90
18225;DHT22;9237;48.590;8.854;2022-12-07T00:55:54;3.10;99.90
18225;DHT22;9237;48.590;8.854;2022-12-07T00:58:22;3.10;99.90
18225;DHT22;9237;48.590;8.854;2022-12-07T01:00:49;3.00;99.90
18225;DHT22;9237;48.590;8.854;2022-12-07T01:03:16;3.00;99.90
18225;DHT22;9237;48.590;8.854;2022-12-07T01:05:51;3.00;99.90
18225;DHT22;9237;48.590;8.854;2022-12-07T01:08:18;3.00;99.90
18225;DHT22;9237;48.590;8.854;2022-12-07T01:10:45;3.00;99.90
18225;DHT22;9237;48.590;8.854;2022-12-07T01:13:12;3.00;99.90
18225;DHT22;9237;48.590;8.854;2022-12-07T01:15:39;3.00;99.90
18225;DHT22;9237;48.590;8.854;2022-12-07T01:18:06;3.00;99.90
18225;DHT22;9237;48.590;8.854;2022-12-07T01:20:33;3.00;99.90
18225;DHT22;9237;48.590;8.854;2022-12-07T01:23:02;3.00;99.90
18225;DHT22;9237;48.590;8.854;2022-12-07T01:25:29;3.00;99.90
18225;DHT22;9237;48.590;8.854;2022-12-07T01:27:56;3.00;99.90
18225;DHT22;9237;48.590;8.854;2022-12-07T01:30:22;2.90;99.90
18225;DHT22;9237;48.590;8.854;2022-12-07T01:32:49;2.90;99.90
18225;DHT22;9237;48.590;8.854;2022-12-07T01:35:16;2.90;99.90
18225;DHT22;9237;48.590;8.854;2022-12-07T01:37:43;2.90;99.90
18225;DHT22;9237;48.590;8.854;2022-12-07T01:40:12;2.90;99.90
18225;DHT22;9237;48.590;8.854;2022-12-07T01:42:39;2.90;99.90
18225;DHT22;9237;48.590;8.854;2022-12-07T01:45:37;2.90;99.90
18225;DHT22;9237;48.590;8.854;2022-12-07T01:48:05;2.90;99.90
18225;DHT22;9237;48.590;8.854;2022-12-07T01:50:33;2.90;99.90
18225;DHT22;9237;48.590;8.854;2022-12-07T01:53:03;2.90;99.90
18225;DHT22;9237;48.590;8.854;2022-12-07T01:55:33;3.00;99.90
18225;DHT22;9237;48.590;8.854;2022-12-07T01:58:00;3.00;99.90
18225;DHT22;9237;48.590;8.854;2022-12-07T02:00:27;3.00;99.90
18225;DHT22;9237;48.590;8.854;2022-12-07T02:02:57;3.10;99.90
18225;DHT22;9237;48.590;8.854;2022-12-07T02:05:26;3.10;99.90
18225;DHT22;9237;48.590;8.854;2022-12-07T02:07:55;3.10;99.90
18225;DHT22;9237;48.590;8.854;2022-12-07T02:10:24;3.10;99.90
18225;DHT22;9237;48.590;8.854;2022-12-07T02:12:55;3.00;99.90
18225;DHT22;9237;48.590;8.854;2022-12-07T02:15:27;2.80;99.90
18225;DHT22;9237;48.590;8.854;2022-12-07T02:18:01;2.70;99.90
18225;DHT22;9237;48.590;8.854;2022-12-07T02:20:33;2.60;99.90
18225;DHT22;9237;48.590;8.854;2022-12-07T02:23:25;2.50;99.90
18225;DHT22;9237;48.590;8.854;2022-12-07T02:29:11;2.40;99.90
18225;DHT22;9237;48.590;8.854;2022-12-07T02:31:44;2.30;99.90
18225;DHT22;9237;48.590;8.854;2022-12-07T02:34:19;2.30;99.90
18225;DHT22;9237;48.590;8.854;2022-12-07T02:36:54;2.30;99.90
18225;DHT22;9237;48.590;8.854;2022-12-07T02:39:28;2.20;99.90
18225;DHT22;9237;48.590;8.854;2022-12-07T02:41:59;2.20;99.90
18225;DHT22;9237;48.590;8.854;2022-12-07T02:44:30;2.20;99.90
18225;DHT22;9237;48.590;8.854;2022-12-07T02:47:02;2.20;99.90
18225;DHT22;9237;48.590;8.854;2022-12-07T02:49:30;2.20;99.90
18225;DHT22;9237;48.590;8.854;2022-12-07T02:51:58;2.20;99.90
18225;DHT22;9237;48.590;8.854;2022-12-07T02:54:25;2.10;99.90
18225;DHT22;9237;48.590;8.854;2022-12-07T02:56:55;2.10;99.90
18225;DHT22;9237;48.590;8.854;2022-12-07T02:59:32;2.20;99.90
18225;DHT22;9237;48.590;8.854;2022-12-07T03:02:12;2.20;99.90
18225;DHT22;9237;48.590;8.854;2022-12-07T03:04:49;2.10;99.90
18225;DHT22;9237;48.590;8.854;2022-12-07T03:07:24;2.10;99.90
18225;DHT22;9237;48.590;8.854;2022-12-07T03:09:58;2.10;99.90
18225;DHT22;9237;48.590;8.854;2022-12-07T03:12:31;2.00;99.90
18225;DHT22;9237;48.590;8.854;2022-12-07T03:15:05;1.90;99.90
18225;DHT22;9237;48.590;8.854;2022-12-07T03:17:36;2.00;99.90
18225;DHT22;9237;48.590;8.854;2022-12-07T03:20:06;1.90;99.90
18225;DHT22;9237;48.590;8.854;2022-12-07T03:22:35;1.90;99.90
18225;DHT22;9237;48.590;8.854;2022-12-07T03:25:07;1.80;99.90
18225;DHT22;9237;48.590;8.854;2022-12-07T03:27:38;1.90;99.90
18225;DHT22;9237;48.590;8.854;2022-12-07T03:30:10;1.90;99.90
18225;DHT22;9237;48.590;8.854;2022-12-07T03:32:41;1.80;99.90
18225;DHT22;9237;48.590;8.854;2022-12-07T03:35:12;1.90;99.90
18225;DHT22;9237;48.590;8.854;2022-12-07T03:37:47;1.90;99.90
18225;DHT22;9237;48.590;8.854;2022-12-07T03:40:18;1.80;99.90
18225;DHT22;9237;48.590;8.854;2022-12-07T03:42:47;1.80;99.90
18225;DHT22;9237;48.590;8.854;2022-12-07T03:45:16;1.80;99.90
18225;DHT22;9237;48.590;8.854;2022-12-07T03:47:47;1.80;99.90
18225;DHT22;9237;48.590;8.854;2022-12-07T03:50:22;1.80;99.90
18225;DHT22;9237;48.590;8.854;2022-12-07T03:52:55;1.80;99.90
18225;DHT22;9237;48.590;8.854;2022-12-07T03:55:27;1.80;99.90
18225;DHT22;9237;48.590;8.854;2022-12-07T03:57:58;1.80;99.90
18225;DHT22;9237;48.590;8.854;2022-12-07T04:00:27;1.70;99.90
18225;DHT22;9237;48.590;8.854;2022-12-07T04:02:55;1.70;99.90
18225;DHT22;9237;48.590;8.854;2022-12-07T04:05:22;1.70;99.90
18225;DHT22;9237;48.590;8.854;2022-12-07T04:07:49;1.70;99.90
18225;DHT22;9237;48.590;8.854;2022-12-07T04:10:16;1.70;99.90
18225;DHT22;9237;48.590;8.854;2022-12-07T04:12:43;1.70;99.90
18225;DHT22;9237;48.590;8.854;2022-12-07T04:15:10;1.70;99.90
18225;DHT22;9237;48.590;8.854;2022-12-07T04:17:38;1.70;99.90
18225;DHT22;9237;48.590;8.854;2022-12-07T04:20:06;1.70;99.90
18225;DHT22;9237;48.590;8.854;2022-12-07T04:22:33;1.70;99.90
18225;DHT22;9237;48.590;8.854;2022-12-07T04:25:00;1.70;99.90
18225;DHT22;9237;48.590;8.854;2022-12-07T04:27:27;1.70;99.90
18225;DHT22;9237;48.590;8.854;2022-12-07T04:29:54;1.90;99.90
18225;DHT22;9237;48.590;8.854;2022-12-07T04:32:21;1.80;99.90
18225;DHT22;9237;48.590;8.854;2022-12-07T04:34:49;1.80;99.90
18225;DHT22;9237;48.590;8.854;2022-12-07T04:37:16;1.70;99.90
18225;DHT22;9237;48.590;8.854;2022-12-07T04:39:43;1.70;99.90
18225;DHT22;9237;48.590;8.854;2022-12-07T04:42:11;1.70;99.90
18225;DHT22;9237;48.590;8.854;2022-12-07T04:44:39;1.70;99.90
18225;DHT22;9237;48.590;8.854;2022-12-07T04:47:06;1.70;99.90
18225;DHT22;9237;48.590;8.854;2022-12-07T04:49:33;1.70;99.90
18225;DHT22;9237;48.590;8.854;2022-12-07T04:52:01;1.70;99.90
18225;DHT22;9237;48.590;8.854;2022-12-07T04:54:28;1.70;99.90
18225;DHT22;9237;48.590;8.854;2022-12-07T04:56:55;1.60;99.90
18225;DHT22;9237;48.590;8.854;2022-12-07T04:59:22;1.60;99.90
18225;DHT22;9237;48.590;8.854;2022-12-07T05:01:49;1.50;99.90
18225;DHT22;9237;48.590;8.854;2022-12-07T05:04:16;1.40;99.90
18225;DHT22;9237;48.590;8.854;2022-12-07T05:06:43;1.20;99.90
18225;DHT22;9237;48.590;8.854;2022-12-07T05:09:12;1.10;99.90
18225;DHT22;9237;48.590;8.854;2022-12-07T05:11:38;1.10;99.90
18225;DHT22;9237;48.590;8.854;2022-12-07T05:14:08;0.90;99.90
18225;DHT22;9237;48.590;8.854;2022-12-07T05:16:36;0.80;99.90
18225;DHT22;9237;48.590;8.854;2022-12-07T05:19:03;0.70;99.90
18225;DHT22;9237;48.590;8.854;2022-12-07T05:21:31;0.50;99.90
18225;DHT22;9237;48.590;8.854;2022-12-07T05:23:57;0.30;99.90
18225;DHT22;9237;48.590;8.854;2022-12-07T05:26:26;0.30;99.90
18225;DHT22;9237;48.590;8.854;2022-12-07T05:28:53;0.20;99.90
18225;DHT22;9237;48.590;8.854;2022-12-07T05:31:20;0.20;99.90
18225;DHT22;9237;48.590;8.854;2022-12-07T05:33:47;0.20;99.90
18225;DHT22;9237;48.590;8.854;2022-12-07T05:36:14;0.20;99.90
18225;DHT22;9237;48.590;8.854;2022-12-07T05:38:41;0.20;99.90
18225;DHT22;9237;48.590;8.854;2022-12-07T05:41:11;0.20;99.90
18225;DHT22;9237;48.590;8.854;2022-12-07T05:44:00;0.10;99.90
18225;DHT22;9237;48.590;8.854;2022-12-07T05:46:27;0.00;99.90
18225;DHT22;9237;48.590;8.854;2022-12-07T05:48:54;0.00;99.90
18225;DHT22;9237;48.590;8.854;2022-12-07T05:51:21;-0.10;99.90
18225;DHT22;9237;48.590;8.854;2022-12-07T05:53:48;-0.10;99.90
18225;DHT22;9237;48.590;8.854;2022-12-07T05:56:15;-0.10;99.90
18225;DHT22;9237;48.590;8.854;2022-12-07T05:58:42;-0.10;99.90
18225;DHT22;9237;48.590;8.854;2022-12-07T06:01:28;0.10;99.90
18225;DHT22;9237;48.590;8.854;2022-12-07T06:03:54;0.20;99.90
18225;DHT22;9237;48.590;8.854;2022-12-07T06:06:21;0.20;99.90
18225;DHT22;9237;48.590;8.854;2022-12-07T06:08:48;0.30;99.90
18225;DHT22;9237;48.590;8.854;2022-12-07T06:11:15;0.30;99.90
18225;DHT22;9237;48.590;8.854;2022-12-07T06:13:59;0.40;99.90
18225;DHT22;9237;48.590;8.854;2022-12-07T06:16:28;0.30;99.90
18225;DHT22;9237;48.590;8.854;2022-12-07T06:18:55;0.20;99.90
18225;DHT22;9237;48.590;8.854;2022-12-07T06:21:21;0.20;99.90
18225;DHT22;9237;48.590;8.854;2022-12-07T06:23:48;0.20;99.90
18225;DHT22;9237;48.590;8.854;2022-12-07T06:26:15;0.20;99.90
18225;DHT22;9237;48.590;8.854;2022-12-07T06:28:42;0.20;99.90
18225;DHT22;9237;48.590;8.854;2022-12-07T06:31:09;0.20;99.90
18225;DHT22;9237;48.590;8.854;2022-12-07T06:33:37;0.20;99.90
18225;DHT22;9237;48.590;8.854;2022-12-07T06:36:04;0.40;99.90
18225;DHT22;9237;48.590;8.854;2022-12-07T06:38:31;0.40;99.90
18225;DHT22;9237;48.590;8.854;2022-12-07T06:40:58;0.50;99.90
18225;DHT22;9237;48.590;8.854;2022-12-07T06:43:25;0.50;99.90
18225;DHT22;9237;48.590;8.854;2022-12-07T06:45:52;0.40;99.90
18225;DHT22;9237;48.590;8.854;2022-12-07T06:48:19;0.40;99.90
18225;DHT22;9237;48.590;8.854;2022-12-07T06:50:48;0.40;99.90
18225;DHT22;9237;48.590;8.854;2022-12-07T06:53:15;0.40;99.90
18225;DHT22;9237;48.590;8.854;2022-12-07T06:55:41;0.30;99.90
18225;DHT22;9237;48.590;8.854;2022-12-07T06:58:08;0.30;99.90
18225;DHT22;9237;48.590;8.854;2022-12-07T07:00:35;0.30;99.90
18225;DHT22;9237;48.590;8.854;2022-12-07T07:03:02;0.30;99.90
18225;DHT22;9237;48.590;8.854;2022-12-07T07:05:29;0.30;99.90
18225;DHT22;9237;48.590;8.854;2022-12-07T07:07:57;0.30;99.90
18225;DHT22;9237;48.590;8.854;2022-12-07T07:10:24;0.30;99.90
18225;DHT22;9237;48.590;8.854;2022-12-07T07:12:50;0.30;99.90
18225;DHT22;9237;48.590;8.854;2022-12-07T07:15:17;0.30;99.90
18225;DHT22;9237;48.590;8.854;2022-12-07T07:17:44;0.30;99.90
18225;DHT22;9237;48.590;8.854;2022-12-07T07:20:12;0.30;99.90
18225;DHT22;9237;48.590;8.854;2022-12-07T07:22:39;0.40;99.90
18225;DHT22;9237;48.590;8.854;2022-12-07T07:25:07;0.40;99.90
18225;DHT22;9237;48.590;8.854;2022-12-07T07:27:34;0.40;99.90
18225;DHT22;9237;48.590;8.854;2022-12-07T07:30:01;0.50;99.90
18225;DHT22;9237;48.590;8.854;2022-12-07T07:32:28;0.50;99.90
18225;DHT22;9237;48.590;8.854;2022-12-07T07:34:55;0.50;99.90
18225;DHT22;9237;48.590;8.854;2022-12-07T07:37:22;0.60;99.90
18225;DHT22;9237;48.590;8.854;2022-12-07T07:39:49;0.60;99.90
18225;DHT22;9237;48.590;8.854;2022-12-07T07:42:17;0.60;99.90
18225;DHT22;9237;48.590;8.854;2022-12-07T07:44:44;0.70;99.90
18225;DHT22;9237;48.590;8.854;2022-12-07T07:47:10;0.70;99.90
18225;DHT22;9237;48.590;8.854;2022-12-07T07:49:37;0.70;99.90
18225;DHT22;9237;48.590;8.854;2022-12-07T07:52:05;0.80;99.90
18225;DHT22;9237;48.590;8.854;2022-12-07T07:54:32;0.90;99.90
18225;DHT22;9237;48.590;8.854;2022-12-07T07:56:59;1.00;99.90
18225;DHT22;9237;48.590;8.854;2022-12-07T07:59:27;1.00;99.90
18225;DHT22;9237;48.590;8.854;2022-12-07T08:01:54;1.10;99.90
18225;DHT22;9237;48.590;8.854;2022-12-07T08:04:21;1.20;99.90
18225;DHT22;9237;48.590;8.854;2022-12-07T08:06:48;1.20;99.90
18225;DHT22;9237;48.590;8.854;2022-12-07T08:09:15;1.30;99.90
18225;DHT22;9237;48.590;8.854;2022-12-07T08:11:41;1.40;99.90
18225;DHT22;9237;48.590;8.854;2022-12-07T08:14:09;1.40;99.90
18225;DHT22;9237;48.590;8.854;2022-12-07T08:16:38;1.40;99.90
18225;DHT22;9237;48.590;8.854;2022-12-07T08:19:05;1.40;99.90
18225;DHT22;9237;48.590;8.854;2022-12-07T08:21:32;1.40;99.90
18225;DHT22;9237;48.590;8.854;2022-12-07T08:23:59;1.40;99.90
18225;DHT22;9237;48.590;8.854;2022-12-07T08:26:26;1.40;99.90
18225;DHT22;9237;48.590;8.854;2022-12-07T08:28:53;1.40;99.90
18225;DHT22;9237;48.590;8.854;2022-12-07T08:31:20;1.40;99.90
18225;DHT22;9237;48.590;8.854;2022-12-07T08:33:48;1.40;99.90
18225;DHT22;9237;48.590;8.854;2022-12-07T08:36:16;1.30;99.90
18225;DHT22;9237;48.590;8.854;2022-12-07T08:38:43;1.40;99.90
18225;DHT22;9237;48.590;8.854;2022-12-07T08:41:09;1.50;99.90
18225;DHT22;9237;48.590;8.854;2022-12-07T08:43:36;1.60;99.90
18225;DHT22;9237;48.590;8.854;2022-12-07T08:46:09;1.70;99.90
18225;DHT22;9237;48.590;8.854;2022-12-07T08:48:39;1.80;99.90
18225;DHT22;9237;48.590;8.854;2022-12-07T08:51:09;1.90;99.90
18225;DHT22;9237;48.590;8.854;2022-12-07T08:53:37;2.00;99.90
18225;DHT22;9237;48.590;8.854;2022-12-07T08:56:06;2.10;99.90
18225;DHT22;9237;48.590;8.854;2022-12-07T08:58:34;2.20;99.90
18225;DHT22;9237;48.590;8.854;2022-12-07T09:01:03;2.20;99.90
18225;DHT22;9237;48.590;8.854;2022-12-07T09:03:30;2.20;99.90
18225;DHT22;9237;48.590;8.854;2022-12-07T09:05:57;2.30;99.90
18225;DHT22;9237;48.590;8.854;2022-12-07T09:08:31;2.40;99.90
18225;DHT22;9237;48.590;8.854;2022-12-07T09:10:58;2.40;99.90
18225;DHT22;9237;48.590;8.854;2022-12-07T09:13:25;2.50;99.90
18225;DHT22;9237;48.590;8.854;2022-12-07T09:15:52;2.40;99.90
18225;DHT22;9237;48.590;8.854;2022-12-07T09:18:19;2.30;99.90
18225;DHT22;9237;48.590;8.854;2022-12-07T09:20:47;2.30;99.90
18225;DHT22;9237;48.590;8.854;2022-12-07T09:23:14;2.30;99.90
18225;DHT22;9237;48.590;8.854;2022-12-07T09:25:42;2.50;99.90
18225;DHT22;9237;48.590;8.854;2022-12-07T09:28:09;2.60;99.90
18225;DHT22;9237;48.590;8.854;2022-12-07T09:30:36;2.80;99.90
18225;DHT22;9237;48.590;8.854;2022-12-07T09:33:02;2.90;99.90
18225;DHT22;9237;48.590;8.854;2022-12-07T09:35:29;2.90;99.90
18225;DHT22;9237;48.590;8.854;2022-12-07T09:37:56;2.90;99.90
18225;DHT22;9237;48.590;8.854;2022-12-07T09:40:23;2.90;99.90
18225;DHT22;9237;48.590;8.854;2022-12-07T09:42:53;2.90;99.90
18225;DHT22;9237;48.590;8.854;2022-12-07T09:45:24;2.90;99.90
18225;DHT22;9237;48.590;8.854;2022-12-07T09:47:52;3.00;99.90
18225;DHT22;9237;48.590;8.854;2022-12-07T09:50:21;3.10;99.90
18225;DHT22;9237;48.590;8.854;2022-12-07T09:52:49;2.90;99.90
18225;DHT22;9237;48.590;8.854;2022-12-07T09:55:23;2.90;99.90
18225;DHT22;9237;48.590;8.854;2022-12-07T09:57:52;3.10;99.90
18225;DHT22;9237;48.590;8.854;2022-12-07T10:00:22;3.20;99.90
18225;DHT22;9237;48.590;8.854;2022-12-07T10:02:52;3.40;99.90
18225;DHT22;9237;48.590;8.854;2022-12-07T10:05:24;3.60;99.90
18225;DHT22;9237;48.590;8.854;2022-12-07T10:07:52;3.60;99.90
18225;DHT22;9237;48.590;8.854;2022-12-07T10:10:23;3.80;99.90
18225;DHT22;9237;48.590;8.854;2022-12-07T10:12:57;3.90;99.90
18225;DHT22;9237;48.590;8.854;2022-12-07T10:15:36;4.00;99.90
18225;DHT22;9237;48.590;8.854;2022-12-07T10:18:17;4.10;99.90
18225;DHT22;9237;48.590;8.854;2022-12-07T10:20:45;4.20;99.90
18225;DHT22;9237;48.590;8.854;2022-12-07T10:23:15;4.20;99.90
18225;DHT22;9237;48.590;8.854;2022-12-07T10:25:43;4.30;99.90
18225;DHT22;9237;48.590;8.854;2022-12-07T10:28:17;4.20;99.90
18225;DHT22;9237;48.590;8.854;2022-12-07T10:30:54;4.10;99.90
18225;DHT22;9237;48.590;8.854;2022-12-07T10:33:35;4.20;99.90
18225;DHT22;9237;48.590;8.854;2022-12-07T10:36:17;4.30;99.90
18225;DHT22;9237;48.590;8.854;2022-12-07T10:38:46;4.40;99.90
18225;DHT22;9237;48.590;8.854;2022-12-07T10:41:13;4.50;99.90
18225;DHT22;9237;48.590;8.854;2022-12-07T10:43:49;4.20;99.90
18225;DHT22;9237;48.590;8.854;2022-12-07T10:46:29;4.50;99.90
18225;DHT22;9237;48.590;8.854;2022-12-07T10:49:14;4.40;99.90
18225;DHT22;9237;48.590;8.854;2022-12-07T10:51:50;4.40;99.90
18225;DHT22;9237;48.590;8.854;2022-12-07T10:54:25;4.50;99.90
18225;DHT22;9237;48.590;8.854;2022-12-07T10:57:03;4.60;99.90
18225;DHT22;9237;48.590;8.854;2022-12-07T10:59:52;4.60;99.90
18225;DHT22;9237;48.590;8.854;2022-12-07T11:02:41;4.50;99.90
18225;DHT22;9237;48.590;8.854;2022-12-07T11:05:19;4.50;99.90
18225;DHT22;9237;48.590;8.854;2022-12-07T11:07:59;4.50;99.90
18225;DHT22;9237;48.590;8.854;2022-12-07T11:10:33;4.70;99.90
18225;DHT22;9237;48.590;8.854;2022-12-07T11:13:18;4.80;99.90
18225;DHT22;9237;48.590;8.854;2022-12-07T11:16:09;4.60;99.90
18225;DHT22;9237;48.590;8.854;2022-12-07T11:18:48;4.70;99.90
18225;DHT22;9237;48.590;8.854;2022-12-07T11:21:23;4.80;99.90
18225;DHT22;9237;48.590;8.854;2022-12-07T11:23:56;4.80;99.90
18225;DHT22;9237;48.590;8.854;2022-12-07T11:26:40;4.80;99.90
18225;DHT22;9237;48.590;8.854;2022-12-07T11:29:22;5.00;99.90
18225;DHT22;9237;48.590;8.854;2022-12-07T11:32:01;4.90;99.90
18225;DHT22;9237;48.590;8.854;2022-12-07T11:34:38;5.00;99.90
18225;DHT22;9237;48.590;8.854;2022-12-07T11:37:09;4.90;99.90
18225;DHT22;9237;48.590;8.854;2022-12-07T11:39:43;5.00;99.90
18225;DHT22;9237;48.590;8.854;2022-12-07T11:42:15;5.10;99.90
18225;DHT22;9237;48.590;8.854;2022-12-07T11:44:48;5.30;99.90
18225;DHT22;9237;48.590;8.854;2022-12-07T11:47:25;5.40;99.90
18225;DHT22;9237;48.590;8.854;2022-12-07T11:49:55;5.40;99.90
18225;DHT22;9237;48.590;8.854;2022-12-07T11:52:27;5.50;99.90
18225;DHT22;9237;48.590;8.854;2022-12-07T11:54:58;5.40;99.90
18225;DHT22;9237;48.590;8.854;2022-12-07T11:57:32;5.40;99.90
18225;DHT22;9237;48.590;8.854;2022-12-07T12:00:05;5.50;99.90
18225;DHT22;9237;48.590;8.854;2022-12-07T12:02:38;5.50;99.90
18225;DHT22;9237;48.590;8.854;2022-12-07T12:05:15;5.40;99.90
18225;DHT22;9237;48.590;8.854;2022-12-07T12:07:44;5.50;99.90
18225;DHT22;9237;48.590;8.854;2022-12-07T12:10:20;5.40;99.90
18225;DHT22;9237;48.590;8.854;2022-12-07T12:13:12;5.40;99.90
18225;DHT22;9237;48.590;8.854;2022-12-07T12:15:56;5.40;99.90
18225;DHT22;9237;48.590;8.854;2022-12-07T12:18:49;5.30;99.90
18225;DHT22;9237;48.590;8.854;2022-12-07T12:21:20;5.20;99.90
18225;DHT22;9237;48.590;8.854;2022-12-07T12:23:55;5.30;99.90
18225;DHT22;9237;48.590;8.854;2022-12-07T12:26:25;5.40;99.90
18225;DHT22;9237;48.590;8.854;2022-12-07T12:28:56;5.40;99.90
18225;DHT22;9237;48.590;8.854;2022-12-07T12:31:34;5.40;99.90
18225;DHT22;9237;48.590;8.854;2022-12-07T12:34:29;5.40;99.90
18225;DHT22;9237;48.590;8.854;2022-12-07T12:36:51;5.40;99.90
18225;DHT22;9237;48.590;8.854;2022-12-07T12:39:19;5.40;99.90
18225;DHT22;9237;48.590;8.854;2022-12-07T12:41:57;5.50;99.90
18225;DHT22;9237;48.590;8.854;2022-12-07T12:50:30;5.50;99.90
18225;DHT22;9237;48.590;8.854;2022-12-07T12:53:17;5.50;99.90
18225;DHT22;9237;48.590;8.854;2022-12-07T12:58:47;5.50;99.90
18225;DHT22;9237;48.590;8.854;2022-12-07T13:01:44;5.40;99.90
18225;DHT22;9237;48.590;8.854;2022-12-07T13:04:24;5.40;99.90
18225;DHT22;9237;48.590;8.854;2022-12-07T13:06:53;5.30;99.90
18225;DHT22;9237;48.590;8.854;2022-12-07T13:09:23;5.40;99.90
18225;DHT22;9237;48.590;8.854;2022-12-07T13:12:00;5.40;99.90
18225;DHT22;9237;48.590;8.854;2022-12-07T13:14:56;5.40;99.90
18225;DHT22;9237;48.590;8.854;2022-12-07T13:17:59;5.30;99.90
18225;DHT22;9237;48.590;8.854;2022-12-07T13:20:52;5.20;99.90
18225;DHT22;9237;48.590;8.854;2022-12-07T13:23:26;5.00;99.90
18225;DHT22;9237;48.590;8.854;2022-12-07T13:26:12;5.10;99.90
18225;DHT22;9237;48.590;8.854;2022-12-07T13:28:42;5.00;99.90
18225;DHT22;9237;48.590;8.854;2022-12-07T13:31:25;5.10;99.90
18225;DHT22;9237;48.590;8.854;2022-12-07T13:33:55;5.20;99.90
18225;DHT22;9237;48.590;8.854;2022-12-07T13:36:24;5.30;99.90
18225;DHT22;9237;48.590;8.854;2022-12-07T13:38:55;5.10;99.90
18225;DHT22;9237;48.590;8.854;2022-12-07T13:41:24;5.10;99.90
18225;DHT22;9237;48.590;8.854;2022-12-07T13:43:59;5.00;99.90
18225;DHT22;9237;48.590;8.854;2022-12-07T13:46:35;5.00;99.90
18225;DHT22;9237;48.590;8.854;2022-12-07T13:49:03;5.00;99.90
18225;DHT22;9237;48.590;8.854;2022-12-07T13:51:55;5.00;99.90
18225;DHT22;9237;48.590;8.854;2022-12-07T13:54:44;5.00;99.90
18225;DHT22;9237;48.590;8.854;2022-12-07T13:57:11;5.00;99.90
18225;DHT22;9237;48.590;8.854;2022-12-07T13:59:38;4.90;99.90
18225;DHT22;9237;48.590;8.854;2022-12-07T14:02:18;4.90;99.90
18225;DHT22;9237;48.590;8.854;2022-12-07T14:04:48;4.80;99.90
18225;DHT22;9237;48.590;8.854;2022-12-07T14:07:22;4.70;99.90
18225;DHT22;9237;48.590;8.854;2022-12-07T14:09:57;4.60;99.90
18225;DHT22;9237;48.590;8.854;2022-12-07T14:12:24;4.60;99.90
18225;DHT22;9237;48.590;8.854;2022-12-07T14:14:52;4.50;99.90
18225;DHT22;9237;48.590;8.854;2022-12-07T14:17:21;4.60;99.90
18225;DHT22;9237;48.590;8.854;2022-12-07T14:19:51;4.60;99.90
18225;DHT22;9237;48.590;8.854;2022-12-07T14:22:27;4.60;99.90
18225;DHT22;9237;48.590;8.854;2022-12-07T14:25:18;4.60;99.90
18225;DHT22;9237;48.590;8.854;2022-12-07T14:27:50;4.50;99.90
18225;DHT22;9237;48.590;8.854;2022-12-07T14:30:19;4.50;99.90
18225;DHT22;9237;48.590;8.854;2022-12-07T14:32:48;4.60;99.90
18225;DHT22;9237;48.590;8.854;2022-12-07T14:35:18;4.50;99.90
18225;DHT22;9237;48.590;8.854;2022-12-07T14:37:47;4.60;99.90
18225;DHT22;9237;48.590;8.854;2022-12-07T14:40:16;4.50;99.90
18225;DHT22;9237;48.590;8.854;2022-12-07T14:42:59;4.50;99.90
18225;DHT22;9237;48.590;8.854;2022-12-07T14:45:28;4.40;99.90
18225;DHT22;9237;48.590;8.854;2022-12-07T14:47:55;4.40;99.90
18225;DHT22;9237;48.590;8.854;2022-12-07T14:50:22;4.40;99.90
18225;DHT22;9237;48.590;8.854;2022-12-07T14:52:52;4.40;99.90
18225;DHT22;9237;48.590;8.854;2022-12-07T14:55:23;4.40;99.90
18225;DHT22;9237;48.590;8.854;2022-12-07T14:57:52;4.40;99.90
18225;DHT22;9237;48.590;8.854;2022-12-07T15:00:21;4.40;99.90
18225;DHT22;9237;48.590;8.854;2022-12-07T15:02:49;4.70;99.90
18225;DHT22;9237;48.590;8.854;2022-12-07T15:05:16;4.80;99.90
18225;DHT22;9237;48.590;8.854;2022-12-07T15:07:44;4.70;99.90
18225;DHT22;9237;48.590;8.854;2022-12-07T15:10:17;4.50;99.90
18225;DHT22;9237;48.590;8.854;2022-12-07T15:12:44;4.40;99.90
18225;DHT22;9237;48.590;8.854;2022-12-07T15:15:13;4.40;99.90
18225;DHT22;9237;48.590;8.854;2022-12-07T15:17:40;4.20;99.90
18225;DHT22;9237;48.590;8.854;2022-12-07T15:20:12;4.20;99.90
18225;DHT22;9237;48.590;8.854;2022-12-07T15:22:39;4.10;99.90
18225;DHT22;9237;48.590;8.854;2022-12-07T15:25:06;4.00;99.90
18225;DHT22;9237;48.590;8.854;2022-12-07T15:27:34;4.00;99.90
18225;DHT22;9237;48.590;8.854;2022-12-07T15:30:00;3.90;99.90
18225;DHT22;9237;48.590;8.854;2022-12-07T15:32:29;3.90;99.90
18225;DHT22;9237;48.590;8.854;2022-12-07T15:34:56;3.80;99.90
18225;DHT22;9237;48.590;8.854;2022-12-07T15:37:23;3.80;99.90
18225;DHT22;9237;48.590;8.854;2022-12-07T15:39:50;3.70;99.90
18225;DHT22;9237;48.590;8.854;2022-12-07T15:42:18;3.60;99.90
18225;DHT22;9237;48.590;8.854;2022-12-07T15:44:48;3.60;99.90
18225;DHT22;9237;48.590;8.854;2022-12-07T15:47:30;3.60;99.90
18225;DHT22;9237;48.590;8.854;2022-12-07T15:49:57;3.60;99.90
18225;DHT22;9237;48.590;8.854;2022-12-07T15:52:24;3.60;99.90
18225;DHT22;9237;48.590;8.854;2022-12-07T15:54:51;3.50;99.90
18225;DHT22;9237;48.590;8.854;2022-12-07T15:57:18;3.50;99.90
18225;DHT22;9237;48.590;8.854;2022-12-07T15:59:45;3.40;99.90
18225;DHT22;9237;48.590;8.854;2022-12-07T16:02:12;3.40;99.90
18225;DHT22;9237;48.590;8.854;2022-12-07T16:04:41;3.40;99.90
18225;DHT22;9237;48.590;8.854;2022-12-07T16:07:08;3.40;99.90
18225;DHT22;9237;48.590;8.854;2022-12-07T16:09:36;3.30;99.90
18225;DHT22;9237;48.590;8.854;2022-12-07T16:12:03;3.20;99.90
18225;DHT22;9237;48.590;8.854;2022-12-07T16:14:30;3.10;99.90
18225;DHT22;9237;48.590;8.854;2022-12-07T16:16:59;3.10;99.90
18225;DHT22;9237;48.590;8.854;2022-12-07T16:19:26;3.10;99.90
18225;DHT22;9237;48.590;8.854;2022-12-07T16:21:54;3.10;99.90
18225;DHT22;9237;48.590;8.854;2022-12-07T16:24:21;3.00;99.90
18225;DHT22;9237;48.590;8.854;2022-12-07T16:26:48;3.10;99.90
18225;DHT22;9237;48.590;8.854;2022-12-07T16:29:16;3.00;99.90
18225;DHT22;9237;48.590;8.854;2022-12-07T16:31:44;3.00;99.90
18225;DHT22;9237;48.590;8.854;2022-12-07T16:34:11;2.90;99.90
18225;DHT22;9237;48.590;8.854;2022-12-07T16:36:38;3.00;99.90